createdAt,value
2018-07-20T00:00:52.457Z,19.80
2018-07-20T00:03:20.153Z,20.00
2018-07-20T00:05:47.807Z,20.14
2018-07-20T00:08:15.488Z,19.66
2018-07-20T00:10:43.170Z,19.64
2018-07-20T00:13:10.887Z,19.97
2018-07-20T00:15:38.561Z,20.03
2018-07-20T00:18:06.380Z,19.86
2018-07-20T00:20:34.072Z,19.73
2018-07-20T00:23:01.725Z,19.80
2018-07-20T00:25:29.386Z,19.86
2018-07-20T00:27:57.042Z,19.59
2018-07-20T00:30:24.797Z,19.66
2018-07-20T00:32:52.408Z,19.77
2018-07-20T00:35:20.097Z,19.69
2018-07-20T00:37:47.784Z,19.73
2018-07-20T00:40:15.472Z,19.56
2018-07-20T00:42:43.141Z,19.63
2018-07-20T00:45:10.817Z,19.66
2018-07-20T00:47:38.496Z,19.73
2018-07-20T00:50:06.674Z,19.58
2018-07-20T00:52:34.353Z,19.68
2018-07-20T00:55:02.054Z,19.71
2018-07-20T00:57:29.731Z,19.65
2018-07-20T00:59:57.373Z,19.24
2018-07-20T01:02:25.069Z,19.09
2018-07-20T01:04:52.786Z,19.35
2018-07-20T01:07:20.473Z,19.27
2018-07-20T01:09:48.160Z,19.43
2018-07-20T01:12:15.844Z,19.49
2018-07-20T01:14:43.506Z,18.67
2018-07-20T01:17:11.164Z,19.00
2018-07-20T01:19:39.722Z,19.12
2018-07-20T01:22:07.849Z,19.30
2018-07-20T01:24:35.487Z,19.35
2018-07-20T01:27:03.221Z,18.60
2018-07-20T01:29:30.902Z,18.48
2018-07-20T01:31:58.568Z,18.46
2018-07-20T01:34:26.217Z,18.82
2018-07-20T01:36:53.925Z,18.80
2018-07-20T01:39:21.594Z,18.52
2018-07-20T01:41:49.306Z,18.63
2018-07-20T01:44:17.001Z,18.75
2018-07-20T01:46:44.657Z,18.92
2018-07-20T01:49:12.349Z,18.82
2018-07-20T01:51:40.025Z,18.62
2018-07-20T01:54:07.690Z,18.57
2018-07-20T01:56:35.386Z,18.35
2018-07-20T01:59:03.034Z,18.38
2018-07-20T02:01:30.687Z,18.10
2018-07-20T02:03:58.511Z,17.85
2018-07-20T02:06:26.181Z,17.79
2018-07-20T02:08:53.913Z,17.89
2018-07-20T02:11:21.591Z,17.72
2018-07-20T02:13:49.257Z,17.67
2018-07-20T02:16:16.926Z,17.70
2018-07-20T02:18:44.601Z,17.74
2018-07-20T02:21:12.295Z,17.78
2018-07-20T02:23:39.979Z,17.69
2018-07-20T02:26:07.659Z,17.80
2018-07-20T02:28:35.314Z,17.67
2018-07-20T02:31:02.985Z,17.64
2018-07-20T02:33:30.670Z,17.59
2018-07-20T02:35:58.578Z,17.52
2018-07-20T02:38:26.268Z,17.50
2018-07-20T02:40:53.936Z,17.52
2018-07-20T02:43:21.599Z,17.55
2018-07-20T02:45:49.274Z,17.62
2018-07-20T02:48:16.943Z,17.63
2018-07-20T02:50:44.627Z,17.66
2018-07-20T02:53:12.307Z,17.75
2018-07-20T02:55:40.012Z,17.82
2018-07-20T02:58:07.690Z,17.91
2018-07-20T03:00:35.353Z,17.90
2018-07-20T03:03:03.078Z,17.86
2018-07-20T03:05:30.748Z,17.89
2018-07-20T03:07:58.407Z,17.86
2018-07-20T03:10:26.201Z,17.87
2018-07-20T03:12:53.866Z,17.93
2018-07-20T03:15:21.530Z,18.01
2018-07-20T03:17:49.193Z,18.05
2018-07-20T03:20:16.889Z,18.13
2018-07-20T03:22:44.541Z,18.25
2018-07-20T03:25:12.204Z,18.24
2018-07-20T03:27:39.876Z,18.28
2018-07-20T03:30:07.657Z,18.30
2018-07-20T03:32:35.292Z,18.32
2018-07-20T03:35:03.056Z,18.35
2018-07-20T03:37:30.721Z,18.42
2018-07-20T03:39:58.377Z,18.56
2018-07-20T03:42:26.070Z,18.55
2018-07-20T03:44:53.730Z,18.62
2018-07-20T03:47:21.405Z,18.70
2018-07-20T03:49:49.101Z,18.77
2018-07-20T03:52:16.813Z,18.92
2018-07-20T03:54:44.461Z,19.07
2018-07-20T03:57:12.296Z,19.25
2018-07-20T03:59:39.999Z,19.31
2018-07-20T04:02:07.698Z,19.42
2018-07-20T04:04:35.350Z,19.70
2018-07-20T04:07:03.052Z,20.13
2018-07-20T04:09:30.744Z,20.43
2018-07-20T04:11:58.427Z,20.67
2018-07-20T04:14:26.137Z,20.93
2018-07-20T04:16:53.806Z,21.06
2018-07-20T04:19:21.496Z,21.28
2018-07-20T04:21:49.186Z,21.46
2018-07-20T04:24:16.857Z,21.67
2018-07-20T04:26:44.537Z,21.74
2018-07-20T04:29:12.215Z,21.91
2018-07-20T04:31:39.883Z,22.10
2018-07-20T04:34:07.619Z,22.18
2018-07-20T04:36:35.286Z,22.41
2018-07-20T04:39:03.079Z,22.64
2018-07-20T04:41:30.752Z,23.03
2018-07-20T04:43:58.473Z,22.89
2018-07-20T04:46:26.124Z,22.88
2018-07-20T04:48:53.786Z,23.32
2018-07-20T04:51:21.476Z,23.39
2018-07-20T04:53:49.190Z,23.39
2018-07-20T04:56:16.856Z,23.54
2018-07-20T04:58:44.544Z,23.45
2018-07-20T05:01:12.482Z,23.67
2018-07-20T05:03:40.204Z,23.68
2018-07-20T05:06:07.832Z,23.68
2018-07-20T05:08:35.546Z,23.74
2018-07-20T05:11:03.282Z,23.82
2018-07-20T05:13:30.970Z,23.95
2018-07-20T05:15:58.733Z,23.80
2018-07-20T05:18:26.390Z,23.99
2018-07-20T05:20:54.103Z,24.00
2018-07-20T05:23:21.760Z,24.07
2018-07-20T05:25:49.439Z,24.00
2018-07-20T05:28:17.108Z,23.99
2018-07-20T05:30:44.813Z,23.99
2018-07-20T05:33:12.502Z,24.19
2018-07-20T05:35:40.179Z,24.35
2018-07-20T05:38:07.867Z,24.37
2018-07-20T05:40:35.573Z,24.50
2018-07-20T05:43:03.327Z,24.29
2018-07-20T05:45:31.004Z,24.21
2018-07-20T05:47:58.686Z,24.28
2018-07-20T05:50:26.349Z,24.24
2018-07-20T05:52:54.086Z,24.27
2018-07-20T05:55:21.771Z,24.28
2018-07-20T05:57:49.481Z,24.33
2018-07-20T06:00:17.241Z,24.27
2018-07-20T06:02:44.942Z,24.27
2018-07-20T06:05:12.625Z,24.25
2018-07-20T06:07:40.351Z,24.26
2018-07-20T06:10:08.059Z,24.26
2018-07-20T06:12:35.800Z,24.32
2018-07-20T06:15:03.966Z,24.34
2018-07-20T06:17:31.661Z,24.32
2018-07-20T06:19:59.389Z,24.38
2018-07-20T06:22:27.129Z,24.39
2018-07-20T06:24:54.847Z,24.43
2018-07-20T06:27:22.507Z,24.41
2018-07-20T06:29:50.232Z,24.41
2018-07-20T06:32:18.021Z,24.42
2018-07-20T06:34:45.707Z,24.49
2018-07-20T06:37:13.387Z,24.49
2018-07-20T06:39:41.056Z,24.55
2018-07-20T06:42:08.822Z,24.58
2018-07-20T06:44:36.517Z,24.63
2018-07-20T06:47:04.217Z,24.55
2018-07-20T06:49:31.912Z,24.68
2018-07-20T06:51:59.686Z,24.62
2018-07-20T06:54:27.341Z,24.63
2018-07-20T06:56:55.001Z,24.62
2018-07-20T06:59:22.801Z,24.60
2018-07-20T07:01:50.473Z,24.65
2018-07-20T07:04:18.141Z,24.65
2018-07-20T07:06:45.822Z,24.56
2018-07-20T07:09:13.487Z,24.55
2018-07-20T07:11:41.186Z,24.56
2018-07-20T07:14:08.921Z,24.54
2018-07-20T07:16:36.610Z,24.73
2018-07-20T07:19:04.301Z,24.68
2018-07-20T07:21:31.998Z,24.68
2018-07-20T07:23:59.682Z,24.62
2018-07-20T07:26:27.387Z,24.53
2018-07-20T07:28:55.058Z,24.49
2018-07-20T07:31:22.760Z,24.69
2018-07-20T07:33:50.470Z,24.67
2018-07-20T07:36:18.177Z,24.65
2018-07-20T07:38:45.856Z,24.73
2018-07-20T07:41:13.532Z,24.62
2018-07-20T07:43:41.212Z,24.49
2018-07-20T07:46:08.901Z,24.63
2018-07-20T07:48:36.614Z,24.62
2018-07-20T07:51:04.317Z,24.47
2018-07-20T07:53:31.977Z,24.51
2018-07-20T07:55:59.651Z,24.69
2018-07-20T07:58:27.347Z,24.69
2018-07-20T08:00:55.013Z,24.60
2018-07-20T08:03:22.705Z,24.72
2018-07-20T08:05:50.407Z,24.70
2018-07-20T08:08:18.051Z,24.76
2018-07-20T08:10:45.724Z,24.77
2018-07-20T08:13:13.426Z,24.80
2018-07-20T08:15:41.195Z,24.84
2018-07-20T08:18:08.913Z,24.83
2018-07-20T08:20:36.647Z,24.68
2018-07-20T08:23:04.334Z,24.55
2018-07-20T08:25:32.008Z,24.68
2018-07-20T08:27:59.676Z,24.71
2018-07-20T08:30:27.389Z,24.80
2018-07-20T08:32:55.121Z,24.81
2018-07-20T08:35:22.796Z,24.80
2018-07-20T08:37:50.441Z,24.95
2018-07-20T08:40:18.105Z,24.77
2018-07-20T08:42:45.773Z,24.65
2018-07-20T08:45:13.438Z,24.89
2018-07-20T08:47:41.087Z,24.90
2018-07-20T08:50:08.857Z,25.02
2018-07-20T08:52:36.531Z,24.84
2018-07-20T08:55:04.294Z,24.75
2018-07-20T08:57:32.016Z,24.74
2018-07-20T08:59:59.695Z,24.80
2018-07-20T09:02:27.388Z,24.81
2018-07-20T09:04:55.070Z,24.86
2018-07-20T09:07:22.746Z,24.86
2018-07-20T09:09:50.409Z,24.88
2018-07-20T09:12:18.223Z,24.92
2018-07-20T09:14:45.907Z,24.93
2018-07-20T09:17:13.742Z,24.99
2018-07-20T09:19:41.412Z,25.01
2018-07-20T09:22:09.133Z,25.01
2018-07-20T09:24:36.816Z,24.99
2018-07-20T09:27:04.518Z,24.99
2018-07-20T09:29:32.214Z,24.98
2018-07-20T09:31:59.946Z,25.04
2018-07-20T09:34:27.661Z,24.98
2018-07-20T09:36:55.373Z,24.99
2018-07-20T09:39:23.057Z,24.99
2018-07-20T09:41:50.768Z,25.01
2018-07-20T09:44:18.477Z,24.97
2018-07-20T09:46:46.167Z,24.99
2018-07-20T09:49:13.847Z,25.00
2018-07-20T09:51:41.545Z,25.03
2018-07-20T09:54:09.237Z,25.01
2018-07-20T09:56:36.901Z,25.01
2018-07-20T09:59:04.650Z,25.00
2018-07-20T10:01:32.347Z,25.00
2018-07-20T10:04:00.071Z,25.01
2018-07-20T10:06:27.758Z,25.00
2018-07-20T10:08:55.437Z,25.00
2018-07-20T10:11:23.109Z,25.01
2018-07-20T10:13:50.755Z,25.00
2018-07-20T10:16:18.961Z,25.02
2018-07-20T10:18:46.818Z,25.01
2018-07-20T10:21:14.485Z,25.01
2018-07-20T10:23:42.151Z,25.04
2018-07-20T10:26:09.808Z,25.05
2018-07-20T10:28:37.460Z,25.02
2018-07-20T10:31:05.149Z,25.04
2018-07-20T10:33:32.824Z,25.06
2018-07-20T10:36:00.467Z,25.08
2018-07-20T10:38:28.134Z,25.05
2018-07-20T10:40:55.813Z,25.09
2018-07-20T10:43:23.462Z,25.09
2018-07-20T10:45:51.138Z,25.09
2018-07-20T10:48:18.846Z,25.05
2018-07-20T10:50:46.544Z,25.03
2018-07-20T10:53:14.261Z,25.05
2018-07-20T10:55:42.432Z,25.05
2018-07-20T10:58:10.189Z,25.02
2018-07-20T11:00:37.852Z,25.04
2018-07-20T11:03:05.534Z,25.08
2018-07-20T11:07:58.377Z,25.10
2018-07-20T11:12:51.188Z,25.12
2018-07-20T11:15:18.853Z,25.11
2018-07-20T11:17:46.558Z,25.16
2018-07-20T11:20:14.611Z,25.18
2018-07-20T11:22:42.273Z,25.14
2018-07-20T11:25:09.927Z,25.14
2018-07-20T11:27:37.609Z,25.13
2018-07-20T11:30:05.621Z,25.09
2018-07-20T11:32:33.301Z,25.07
2018-07-20T11:35:01.380Z,25.14
2018-07-20T11:37:29.087Z,25.08
2018-07-20T11:39:56.787Z,25.03
2018-07-20T11:42:24.474Z,25.08
2018-07-20T11:44:52.122Z,25.02
2018-07-20T11:47:19.796Z,25.03
2018-07-20T11:49:47.505Z,25.06
2018-07-20T11:52:15.225Z,25.07
2018-07-20T11:54:42.882Z,25.04
2018-07-20T11:57:10.561Z,25.04
2018-07-20T11:59:38.220Z,25.05
2018-07-20T12:02:05.940Z,25.01
2018-07-20T12:04:33.614Z,25.05
2018-07-20T12:07:01.422Z,25.04
2018-07-20T12:09:29.143Z,24.80
2018-07-20T12:11:56.854Z,24.97
2018-07-20T12:14:24.536Z,24.94
2018-07-20T12:16:52.238Z,24.93
2018-07-20T12:19:20.001Z,24.96
2018-07-20T12:21:47.713Z,24.96
2018-07-20T12:24:15.438Z,24.94
2018-07-20T12:26:43.129Z,24.94
2018-07-20T12:29:10.933Z,24.91
2018-07-20T12:31:38.617Z,24.89
2018-07-20T12:34:06.380Z,24.89
2018-07-20T12:36:34.086Z,24.90
2018-07-20T12:39:01.786Z,24.98
2018-07-20T12:41:29.468Z,25.00
2018-07-20T12:43:57.186Z,25.00
2018-07-20T12:46:24.905Z,24.99
2018-07-20T12:48:52.597Z,24.98
2018-07-20T12:51:20.309Z,25.00
2018-07-20T12:53:47.996Z,24.99
2018-07-20T12:56:15.770Z,24.97
2018-07-20T12:58:43.500Z,24.99
2018-07-20T13:01:11.246Z,24.98
2018-07-20T13:03:39.003Z,24.95
2018-07-20T13:06:06.733Z,24.96
2018-07-20T13:08:34.448Z,24.96
2018-07-20T13:11:02.167Z,24.98
2018-07-20T13:13:29.853Z,24.90
2018-07-20T13:15:57.570Z,24.93
2018-07-20T13:18:25.344Z,24.88
2018-07-20T13:20:53.117Z,24.90
2018-07-20T13:23:20.859Z,24.91
2018-07-20T13:25:48.556Z,24.90
2018-07-20T13:28:16.280Z,24.90
2018-07-20T13:30:44.085Z,24.89
2018-07-20T13:33:11.993Z,24.90
2018-07-20T13:35:39.674Z,24.85
2018-07-20T13:38:07.369Z,24.85
2018-07-20T13:40:35.079Z,24.82
2018-07-20T13:43:02.802Z,24.86
2018-07-20T13:45:30.529Z,24.83
2018-07-20T13:47:58.251Z,24.82
2018-07-20T13:50:25.992Z,24.80
2018-07-20T13:52:53.784Z,24.78
2018-07-20T13:55:21.447Z,24.78
2018-07-20T13:57:49.224Z,24.78
2018-07-20T14:00:16.925Z,24.78
2018-07-20T14:02:44.645Z,24.76
2018-07-20T14:05:12.325Z,24.74
2018-07-20T14:07:40.011Z,24.78
2018-07-20T14:10:07.756Z,24.72
2018-07-20T14:12:35.437Z,24.71
2018-07-20T14:15:03.224Z,24.75
2018-07-20T14:17:30.959Z,24.75
2018-07-20T14:19:58.670Z,24.76
2018-07-20T14:22:26.352Z,24.78
2018-07-20T14:24:54.135Z,24.82
2018-07-20T14:27:21.870Z,24.81
2018-07-20T14:29:49.565Z,24.82
2018-07-20T14:32:17.235Z,24.79
2018-07-20T14:34:44.931Z,24.79
2018-07-20T14:37:12.705Z,24.78
2018-07-20T14:39:40.412Z,24.80
2018-07-20T14:42:08.156Z,24.81
2018-07-20T14:44:35.830Z,24.77
2018-07-20T14:47:03.540Z,24.79
2018-07-20T14:49:31.233Z,24.77
2018-07-20T14:51:58.929Z,24.77
2018-07-20T14:54:26.619Z,24.79
2018-07-20T14:56:54.530Z,24.77
2018-07-20T14:59:22.539Z,24.83
2018-07-20T15:01:50.227Z,24.79
2018-07-20T15:04:17.995Z,24.82
2018-07-20T15:06:45.738Z,24.80
2018-07-20T15:09:13.528Z,24.78
2018-07-20T15:11:41.433Z,24.79
2018-07-20T15:14:09.519Z,24.81
2018-07-20T15:16:37.381Z,24.84
2018-07-20T15:19:05.306Z,24.84
2018-07-20T15:21:33.093Z,24.87
2018-07-20T15:24:00.840Z,24.85
2018-07-20T15:26:28.555Z,24.81
2018-07-20T15:28:56.235Z,24.79
2018-07-20T15:31:23.912Z,24.98
2018-07-20T15:33:51.651Z,24.98
2018-07-20T15:36:19.317Z,24.97
2018-07-20T15:38:47.001Z,25.02
2018-07-20T15:41:14.683Z,25.00
2018-07-20T15:43:42.403Z,24.99
2018-07-20T15:46:10.531Z,25.01
2018-07-20T15:48:38.210Z,25.05
2018-07-20T15:51:05.956Z,25.08
2018-07-20T15:53:37.361Z,25.07
2018-07-20T15:56:01.392Z,25.11
2018-07-20T15:58:29.335Z,25.09
2018-07-20T16:00:57.069Z,25.08
2018-07-20T16:03:24.775Z,25.09
2018-07-20T16:05:52.489Z,25.09
2018-07-20T16:08:20.190Z,25.07
2018-07-20T16:10:47.852Z,25.06
2018-07-20T16:13:15.533Z,25.05
2018-07-20T16:15:43.231Z,25.04
2018-07-20T16:18:10.965Z,25.01
2018-07-20T16:20:38.719Z,25.02
2018-07-20T16:23:06.430Z,25.08
2018-07-20T16:25:39.277Z,25.10
2018-07-20T16:28:07.026Z,25.10
2018-07-20T16:30:34.926Z,25.11
2018-07-20T16:33:02.631Z,25.11
2018-07-20T16:35:30.366Z,25.11
2018-07-20T16:37:58.102Z,25.19
2018-07-20T16:40:25.818Z,25.16
2018-07-20T16:42:53.531Z,25.19
2018-07-20T16:45:21.241Z,25.13
2018-07-20T16:47:49.006Z,25.16
2018-07-20T16:50:16.765Z,25.16
2018-07-20T16:52:44.482Z,25.15
2018-07-20T16:55:12.354Z,25.19
2018-07-20T16:57:40.084Z,25.17
2018-07-20T17:00:08.351Z,25.19
2018-07-20T17:02:36.036Z,25.19
2018-07-20T17:05:03.898Z,25.23
2018-07-20T17:07:31.611Z,25.20
2018-07-20T17:09:59.289Z,25.21
2018-07-20T17:12:27.078Z,25.24
2018-07-20T17:14:54.811Z,25.23
2018-07-20T17:17:22.491Z,25.20
2018-07-20T17:19:50.196Z,25.21
2018-07-20T17:22:17.969Z,25.21
2018-07-20T17:24:45.696Z,25.20
2018-07-20T17:27:13.742Z,25.18
2018-07-20T17:29:41.587Z,25.19
2018-07-20T17:32:09.289Z,25.16
2018-07-20T17:34:36.963Z,25.16
2018-07-20T17:37:04.697Z,25.21
2018-07-20T17:39:32.441Z,25.21
2018-07-20T17:42:00.150Z,25.19
2018-07-20T17:44:27.840Z,25.18
2018-07-20T17:46:55.547Z,25.20
2018-07-20T17:49:23.273Z,25.19
2018-07-20T17:51:51.029Z,25.21
2018-07-20T17:54:18.737Z,25.22
2018-07-20T17:56:46.469Z,25.22
2018-07-20T17:59:14.198Z,25.20
2018-07-20T18:01:41.915Z,25.25
2018-07-20T18:04:09.581Z,25.24
2018-07-20T18:06:37.298Z,25.22
2018-07-20T18:09:07.407Z,25.24
2018-07-20T18:11:35.133Z,25.27
2018-07-20T18:14:02.857Z,25.26
2018-07-20T18:16:30.575Z,25.26
2018-07-20T18:18:58.449Z,25.27
2018-07-20T18:21:26.317Z,25.27
2018-07-20T18:23:54.103Z,25.26
2018-07-20T18:26:21.916Z,25.28
2018-07-20T18:28:49.717Z,25.26
2018-07-20T18:31:17.455Z,25.25
2018-07-20T18:33:45.193Z,25.29
2018-07-20T18:36:12.863Z,25.29
2018-07-20T18:38:40.718Z,25.27
2018-07-20T18:41:08.479Z,25.27
2018-07-20T18:43:36.165Z,25.25
2018-07-20T18:46:03.897Z,25.23
2018-07-20T18:48:31.603Z,25.18
2018-07-20T18:50:59.303Z,25.12
2018-07-20T18:53:27.035Z,25.14
2018-07-20T18:55:54.779Z,25.14
2018-07-20T18:58:22.572Z,25.14
2018-07-20T19:00:50.264Z,25.15
2018-07-20T19:03:17.959Z,25.13
2018-07-20T19:05:45.630Z,25.14
2018-07-20T19:08:13.321Z,25.11
2018-07-20T19:10:41.185Z,25.08
2018-07-20T19:13:08.909Z,25.09
2018-07-20T19:15:36.574Z,25.10
2018-07-20T19:18:04.267Z,25.08
2018-07-20T19:20:31.958Z,25.10
2018-07-20T19:22:59.605Z,25.11
2018-07-20T19:25:27.286Z,25.14
2018-07-20T19:27:54.961Z,25.13
2018-07-20T19:30:22.684Z,25.13
2018-07-20T19:32:50.368Z,25.10
2018-07-20T19:35:18.059Z,25.04
2018-07-20T19:37:45.725Z,24.79
2018-07-20T19:40:13.376Z,24.89
2018-07-20T19:42:41.059Z,24.89
2018-07-20T19:45:08.775Z,24.67
2018-07-20T19:47:36.526Z,24.84
2018-07-20T19:50:04.266Z,24.75
2018-07-20T19:52:31.965Z,24.68
2018-07-20T19:54:59.665Z,24.68
2018-07-20T19:57:27.362Z,24.51
2018-07-20T19:59:55.013Z,24.63
2018-07-20T20:02:22.890Z,24.52
2018-07-20T20:04:50.612Z,24.53
2018-07-20T20:07:18.297Z,24.44
2018-07-20T20:09:45.991Z,24.23
2018-07-20T20:12:14.182Z,24.33
2018-07-20T20:14:41.889Z,24.31
2018-07-20T20:17:09.585Z,24.20
2018-07-20T20:19:37.281Z,24.10
2018-07-20T20:22:04.962Z,24.15
2018-07-20T20:24:32.645Z,24.15
2018-07-20T20:27:00.350Z,24.13
2018-07-20T20:29:28.024Z,24.05
2018-07-20T20:31:55.744Z,23.59
2018-07-20T20:34:23.416Z,23.71
2018-07-20T20:36:51.113Z,23.83
2018-07-20T20:39:18.830Z,23.80
2018-07-20T20:41:46.506Z,23.68
2018-07-20T20:44:14.163Z,23.53
2018-07-20T20:46:41.845Z,23.57
2018-07-20T20:49:09.518Z,23.68
2018-07-20T20:51:37.256Z,23.50
2018-07-20T20:54:05.347Z,23.47
2018-07-20T20:56:32.981Z,23.44
2018-07-20T20:59:00.686Z,23.47
2018-07-20T21:01:28.356Z,23.41
2018-07-20T21:03:56.005Z,23.44
2018-07-20T21:06:23.668Z,23.32
2018-07-20T21:08:51.360Z,23.38
2018-07-20T21:11:19.036Z,23.41
2018-07-20T21:13:46.739Z,23.23
2018-07-20T21:16:14.450Z,23.33
2018-07-20T21:18:42.110Z,23.35
2018-07-20T21:21:09.818Z,23.33
2018-07-20T21:23:37.533Z,23.27
2018-07-20T21:26:05.437Z,23.21
2018-07-20T21:28:33.184Z,23.22
2018-07-20T21:31:00.846Z,23.21
2018-07-20T21:33:28.517Z,23.16
2018-07-20T21:35:56.164Z,23.14
2018-07-20T21:38:23.823Z,23.12
2018-07-20T21:40:51.522Z,23.09
2018-07-20T21:43:19.200Z,23.10
2018-07-20T21:45:46.895Z,23.00
2018-07-20T21:48:14.549Z,23.00
2018-07-20T21:50:42.327Z,22.97
2018-07-20T21:53:09.982Z,22.92
2018-07-20T21:55:37.693Z,22.78
2018-07-20T21:58:05.392Z,22.80
2018-07-20T22:00:33.050Z,22.60
2018-07-20T22:03:00.717Z,22.83
2018-07-20T22:05:28.404Z,22.82
2018-07-20T22:07:56.122Z,22.83
2018-07-20T22:10:23.808Z,22.80
2018-07-20T22:12:51.491Z,22.62
2018-07-20T22:15:19.226Z,22.72
2018-07-20T22:17:46.894Z,22.71
2018-07-20T22:20:14.564Z,22.66
2018-07-20T22:22:42.294Z,22.67
2018-07-20T22:25:09.970Z,22.60
2018-07-20T22:27:37.641Z,22.49
2018-07-20T22:30:07.448Z,22.54
2018-07-20T22:32:35.170Z,22.49
2018-07-20T22:35:02.884Z,22.49
2018-07-20T22:37:30.603Z,22.46
2018-07-20T22:39:58.272Z,22.37
2018-07-20T22:42:25.952Z,22.38
2018-07-20T22:44:53.639Z,22.43
2018-07-20T22:47:21.305Z,22.16
2018-07-20T22:49:48.987Z,22.33
2018-07-20T22:52:16.681Z,22.35
2018-07-20T22:54:44.353Z,22.35
2018-07-20T22:57:12.028Z,22.35
2018-07-20T22:59:39.739Z,22.31
2018-07-20T23:02:07.436Z,22.29
2018-07-20T23:04:35.106Z,22.24
2018-07-20T23:07:02.820Z,22.22
2018-07-20T23:09:30.476Z,22.22
2018-07-20T23:11:58.193Z,22.14
2018-07-20T23:14:25.850Z,22.22
2018-07-20T23:16:53.534Z,22.09
2018-07-20T23:19:21.194Z,22.14
2018-07-20T23:21:48.862Z,22.02
2018-07-20T23:24:16.517Z,22.15
2018-07-20T23:26:44.169Z,22.22
2018-07-20T23:29:11.893Z,22.22
2018-07-20T23:31:39.574Z,22.19
2018-07-20T23:34:07.663Z,22.17
2018-07-20T23:36:35.489Z,22.04
2018-07-20T23:39:04.516Z,21.99
2018-07-20T23:41:32.194Z,21.87
2018-07-20T23:43:59.876Z,21.94
2018-07-20T23:46:27.515Z,22.02
2018-07-20T23:48:55.199Z,22.01
2018-07-20T23:51:22.929Z,22.03
2018-07-20T23:53:50.582Z,22.03
2018-07-20T23:56:18.261Z,22.02
2018-07-20T23:58:45.945Z,22.02
